Time;durP1;ratioP1;P1;durP2;ratioP2;P2;SDS_P1;SDS_P2;PMS_P1;PMS_P2;Temp;Humidity;BMP_temperature;BMP_pressure;BME280_temperature;BME280_humidity;BME280_pressure;Samples;Min_cycle;Max_cycle;Signal;HPM_P1;HPM_P2
2022/01/25 00:15:03;;;;;;;18.40;10.03;;;;;;;-2.05;100.00;96921.16;4986574;28;20587;-84
2022/01/25 00:31:09;;;;;;;17.43;9.47;;;;;;;-2.32;100.00;96914.22;4983999;28;20220;-83
2022/01/25 00:33:42;;;;;;;13.47;9.20;;;;;;;-2.35;100.00;96912.59;4983111;28;20215;-83
2022/01/25 00:36:42;;;;;;;11.57;8.27;;;;;;;-2.36;100.00;96912.63;4965095;28;20189;-82
2022/01/25 00:39:10;;;;;;;11.73;8.53;;;;;;;-2.36;100.00;96921.09;4907289;29;20224;-84
2022/01/25 00:41:36;;;;;;;13.03;8.27;;;;;;;-2.37;100.00;96916.03;4920390;29;20200;-83
2022/01/25 00:44:04;;;;;;;14.57;7.97;;;;;;;-2.34;100.00;96919.34;4889368;29;20283;-81
2022/01/25 00:46:30;;;;;;;10.93;7.67;;;;;;;-2.37;100.00;96916.03;4922440;29;20649;-82
2022/01/25 00:49:02;;;;;;;11.70;7.30;;;;;;;-2.40;100.00;96918.63;4889916;29;20207;-82
2022/01/25 00:54:14;;;;;;;11.43;7.30;;;;;;;-2.42;100.00;96912.75;4921823;29;20219;-81
2022/01/25 00:56:45;;;;;;;11.40;7.63;;;;;;;-2.41;100.00;96912.72;4905094;29;20215;-82
2022/01/25 00:59:18;;;;;;;13.03;8.30;;;;;;;-2.40;100.00;96911.84;4889582;29;20200;-83
2022/01/25 01:01:45;;;;;;;13.67;8.10;;;;;;;-2.40;100.00;96916.94;4921634;29;20338;-82
2022/01/25 01:04:13;;;;;;;13.00;7.93;;;;;;;-2.42;100.00;96907.66;4905306;29;20193;-82
2022/01/25 01:06:43;;;;;;;13.57;8.13;;;;;;;-2.47;100.00;96900.16;4904557;29;20321;-83
2022/01/25 01:09:12;;;;;;;12.87;8.77;;;;;;;-2.44;100.00;96902.63;4891001;29;20223;-82
2022/01/25 01:11:47;;;;;;;10.20;7.53;;;;;;;-2.45;100.00;96910.28;4904848;29;20189;-82
2022/01/25 01:40:54;;;;;;;13.97;7.87;;;;;;;-2.70;100.00;96923.56;4985269;28;20198;-83
2022/01/25 01:43:29;;;;;;;10.20;6.80;;;;;;;-2.70;100.00;96917.63;4966707;28;20184;-82
2022/01/25 01:46:16;;;;;;;11.33;7.57;;;;;;;-2.69;100.00;96916.75;4981685;28;20183;-84
2022/01/25 01:48:56;;;;;;;11.37;7.63;;;;;;;-2.70;100.00;96913.38;4982591;28;20664;-84
2022/01/25 01:51:32;;;;;;;11.83;7.30;;;;;;;-2.75;100.00;96921.97;4981772;28;20552;-85
2022/01/25 01:54:09;;;;;;;10.63;7.67;;;;;;;-2.78;100.00;96922.06;4966769;28;20178;-84
2022/01/25 01:56:35;;;;;;;12.87;7.57;;;;;;;-2.79;100.00;96925.47;4977737;28;20192;-84
2022/01/25 01:59:07;;;;;;;10.33;6.87;;;;;;;-2.80;100.00;96922.09;4981599;28;20197;-84
2022/01/25 02:01:34;;;;;;;14.60;7.30;;;;;;;-2.81;100.00;96919.59;4997842;28;20673;-85
2022/01/25 02:04:01;;;;;;;8.93;6.30;;;;;;;-2.83;100.00;96919.59;4982521;28;20552;-85
2022/01/25 02:06:26;;;;;;;11.43;7.33;;;;;;;-2.82;100.00;96925.53;4954518;28;20204;-86
2022/01/25 02:08:52;;;;;;;10.77;7.27;;;;;;;-2.79;100.00;96920.38;4969482;28;20200;-85
2022/01/25 02:11:17;;;;;;;11.70;7.37;;;;;;;-2.78;100.00;96924.59;5010972;28;20186;-85
2022/01/25 02:13:43;;;;;;;13.63;7.77;;;;;;;-2.78;100.00;96916.97;4988405;28;20268;-85
2022/01/25 02:16:18;;;;;;;13.57;7.83;;;;;;;-2.74;100.00;96918.56;5008234;28;20185;-85
2022/01/25 02:24:11;;;;;;;10.20;7.03;;;;;;;-2.78;100.00;96916.97;4992323;28;20211;-84
2022/01/25 02:26:36;;;;;;;11.80;7.23;;;;;;;-2.81;100.00;96912.78;4989552;28;20272;-85
2022/01/25 02:29:02;;;;;;;14.37;7.97;;;;;;;-2.79;100.00;96911.06;4952635;28;20200;-85
2022/01/25 02:31:27;;;;;;;13.30;9.10;;;;;;;-2.77;100.00;96906.75;4952000;28;20645;-85
2022/01/25 02:33:53;;;;;;;12.67;8.53;;;;;;;-2.78;100.00;96914.44;4967344;28;20679;-84
2022/01/25 02:36:26;;;;;;;13.57;8.67;;;;;;;-2.78;100.00;96904.25;4967607;28;20198;-85
2022/01/25 02:38:52;;;;;;;14.73;9.30;;;;;;;-2.81;100.00;96901.78;4969687;28;20290;-86
2022/01/25 02:41:17;;;;;;;11.17;8.07;;;;;;;-2.81;100.00;96906.88;4991433;28;20189;-83
2022/01/25 02:43:45;;;;;;;13.03;8.50;;;;;;;-2.84;100.00;96905.22;4997719;28;20185;-84
2022/01/25 02:48:54;;;;;;;14.90;8.77;;;;;;;-2.86;100.00;96895.09;4990867;28;20263;-84
2022/01/25 02:51:23;;;;;;;13.80;8.97;;;;;;;-2.87;100.00;96898.50;4989376;28;20199;-85
2022/01/25 02:53:48;;;;;;;14.37;8.77;;;;;;;-2.88;100.00;96888.38;4959615;28;20197;-84
2022/01/25 02:56:17;;;;;;;16.10;9.53;;;;;;;-2.86;100.00;96895.09;4953040;28;20187;-85
2022/01/25 02:58:43;;;;;;;14.70;9.23;;;;;;;-2.83;100.00;96895.88;4965532;28;20204;-84
2022/01/25 03:01:08;;;;;;;17.60;10.90;;;;;;;-2.89;100.00;96887.53;4969819;28;20196;-82
2022/01/25 03:03:34;;;;;;;12.27;8.67;;;;;;;-2.89;100.00;96894.31;4985479;28;20176;-82
2022/01/25 03:05:59;;;;;;;13.30;9.23;;;;;;;-2.94;100.00;96891.88;4985278;28;20188;-82
2022/01/25 03:08:24;;;;;;;14.90;9.33;;;;;;;-2.93;100.00;96892.72;4983690;28;20203;-82
2022/01/25 03:10:50;;;;;;;13.13;9.23;;;;;;;-2.96;100.00;96891.06;4987056;28;20235;-84
2022/01/25 03:13:20;;;;;;;15.77;9.93;;;;;;;-2.97;100.00;96891.94;4984177;28;20190;-82
2022/01/25 03:18:35;;;;;;;17.20;10.57;;;;;;;-3.03;100.00;96893.78;4987601;28;20291;-81
2022/01/25 03:21:04;;;;;;;14.67;9.77;;;;;;;-3.07;100.00;96897.25;4990094;28;20190;-82
2022/01/25 03:23:31;;;;;;;13.17;8.93;;;;;;;-3.09;100.00;96896.44;4987611;28;20187;-82
2022/01/25 03:25:57;;;;;;;13.73;9.40;;;;;;;-3.09;100.00;96883.72;5001563;28;20257;-83
2022/01/25 03:28:22;;;;;;;15.70;9.60;;;;;;;-3.10;100.00;96882.91;4985164;28;20232;-83
2022/01/25 03:30:48;;;;;;;18.80;10.20;;;;;;;-3.10;100.00;96877.81;4984282;28;20689;-82
2022/01/25 03:33:14;;;;;;;16.07;10.20;;;;;;;-3.09;100.00;96884.59;4983535;28;20179;-83
2022/01/25 03:35:40;;;;;;;16.57;10.00;;;;;;;-3.07;100.00;96885.41;4971175;28;20212;-82
2022/01/25 03:38:05;;;;;;;17.67;10.27;;;;;;;-3.05;100.00;96885.34;4963970;28;20176;-84
2022/01/25 03:40:31;;;;;;;19.60;11.33;;;;;;;-3.04;100.00;96876.84;4968194;28;20182;-82
2022/01/25 03:42:59;;;;;;;19.37;10.60;;;;;;;-3.02;100.00;96885.28;4983933;28;20251;-82
2022/01/25 03:45:30;;;;;;;14.67;9.40;;;;;;;-3.06;100.00;96876.06;4984309;28;20244;-82
2022/01/25 03:49:48;;;;;;;16.67;10.80;;;;;;;-3.04;100.00;96881.94;4985382;28;20207;-83
2022/01/25 03:50:46;;;;;;;16.03;9.70;;;;;;;-3.05;100.00;96876.03;4987641;28;20216;-82
2022/01/25 03:53:13;;;;;;;17.00;9.97;;;;;;;-3.01;100.00;96880.16;4966285;28;20720;-81
2022/01/25 03:55:39;;;;;;;15.83;9.67;;;;;;;-3.06;100.00;96879.44;4965319;28;20219;-84
2022/01/25 03:58:05;;;;;;;18.00;9.47;;;;;;;-3.05;100.00;96880.28;4980688;28;20187;-83
2022/01/25 04:00:31;;;;;;;17.80;9.50;;;;;;;-3.11;100.00;96877.84;4976963;28;20181;-82
2022/01/25 04:03:44;;;;;;;12.73;9.00;;;;;;;-3.16;100.00;96881.34;4982112;28;20187;-84
2022/01/25 04:08:11;;;;;;;17.47;9.83;;;;;;;-3.02;100.00;96875.94;4984028;28;20205;-83
2022/01/25 04:10:36;;;;;;;14.77;10.80;;;;;;;-2.94;100.00;96878.31;4964366;28;20205;-83
2022/01/25 04:13:03;;;;;;;17.83;10.57;;;;;;;-2.95;100.00;96874.94;4979838;28;20223;-85
2022/01/25 04:15:29;;;;;;;18.40;10.43;;;;;;;-2.93;100.00;96874.91;4962723;28;20699;-83
2022/01/25 04:20:39;;;;;;;12.97;8.67;;;;;;;-2.93;100.00;96875.75;4972454;28;20242;-84
2022/01/25 04:25:51;;;;;;;12.77;8.07;;;;;;;-3.01;100.00;96881.88;4985109;28;20278;-84
2022/01/25 04:28:17;;;;;;;13.80;8.83;;;;;;;-2.95;100.00;96869.88;4983100;28;20196;-81
2022/01/25 04:30:42;;;;;;;15.47;9.80;;;;;;;-2.90;100.00;96874.88;4980306;28;20204;-83
2022/01/25 04:33:24;;;;;;;13.47;9.00;;;;;;;-2.92;100.00;96868.97;4983531;28;20200;-82
2022/01/25 04:36:25;;;;;;;10.83;7.83;;;;;;;-2.95;100.00;96867.31;4988582;28;20176;-82
2022/01/25 04:49:46;;;;;;;13.57;8.90;;;;;;;-3.00;100.00;96869.16;4996594;28;20226;-84
2022/01/25 04:52:16;;;;;;;16.90;10.23;;;;;;;-3.03;100.00;96863.28;4977456;28;20196;-84
2022/01/25 04:54:53;;;;;;;18.77;12.33;;;;;;;-3.04;100.00;96869.22;4990364;28;20218;-83
2022/01/25 04:57:35;;;;;;;104.07;36.17;;;;;;;-3.07;100.00;96859.97;4972234;28;20196;-85
2022/01/25 05:00:22;;;;;;;127.07;45.13;;;;;;;-3.08;100.00;96865.94;4994770;28;20195;-82
2022/01/25 05:03:06;;;;;;;134.20;46.20;;;;;;;-3.13;100.00;96863.47;4993094;28;20191;-82
2022/01/25 05:05:36;;;;;;;108.70;42.90;;;;;;;-3.07;100.00;96864.22;4977814;28;20179;-82
2022/01/25 05:08:17;;;;;;;66.77;31.47;;;;;;;-3.10;100.00;96865.09;4990265;28;20524;-84
2022/01/25 05:10:59;;;;;;;48.77;24.77;;;;;;;-3.11;100.00;96862.59;4989315;28;20667;-81
2022/01/25 05:16:14;;;;;;;22.37;14.33;;;;;;;-3.09;100.00;96871.03;4983352;28;20198;-79
2022/01/25 05:18:49;;;;;;;19.57;13.93;;;;;;;-3.10;100.00;96864.28;4987720;28;20732;-83
2022/01/25 05:23:59;;;;;;;22.27;13.00;;;;;;;-3.08;100.00;96870.19;4971978;28;20223;-84
2022/01/25 05:26:26;;;;;;;22.23;13.40;;;;;;;-3.10;100.00;96872.72;4959901;28;20236;-83
2022/01/25 05:28:51;;;;;;;34.27;19.03;;;;;;;-3.10;100.00;96876.97;4953013;28;20308;-85
2022/01/25 05:31:16;;;;;;;50.47;30.60;;;;;;;-3.17;100.00;96874.59;4986849;28;20226;-82
2022/01/25 05:33:42;;;;;;;38.93;24.63;;;;;;;-3.19;100.00;96866.13;4971829;28;20721;-82
2022/01/25 05:36:07;;;;;;;24.10;16.17;;;;;;;-3.13;100.00;96872.81;4971380;28;20167;-83
2022/01/25 05:38:32;;;;;;;22.60;12.90;;;;;;;-3.17;100.00;96869.50;4987386;28;20203;-83
2022/01/25 05:41:01;;;;;;;19.50;12.47;;;;;;;-3.18;100.00;96872.91;5005016;28;20172;-84
2022/01/25 05:46:17;;;;;;;32.13;16.03;;;;;;;-3.15;100.00;96870.31;4969668;28;20206;-82
2022/01/25 05:48:43;;;;;;;41.13;20.50;;;;;;;-3.07;100.00;96869.31;4989440;28;20195;-82
2022/01/25 05:51:10;;;;;;;41.53;22.77;;;;;;;-3.03;100.00;96864.13;4986476;28;20211;-81
2022/01/25 05:53:35;;;;;;;48.07;23.13;;;;;;;-3.05;100.00;96858.22;4987219;28;20220;-83
2022/01/25 05:56:01;;;;;;;48.27;23.67;;;;;;;-3.06;100.00;96866.72;4974724;28;20186;-82
2022/01/25 05:58:26;;;;;;;34.77;19.90;;;;;;;-3.07;100.00;96864.22;4957673;28;20854;-80
2022/01/25 06:00:51;;;;;;;34.70;19.53;;;;;;;-3.06;100.00;96865.91;4980487;28;20219;-83
2022/01/25 06:03:17;;;;;;;24.27;14.30;;;;;;;-3.05;100.00;96870.09;4984077;28;20350;-84
2022/01/25 06:05:43;;;;;;;24.80;14.00;;;;;;;-3.14;100.00;96871.97;4984358;28;20633;-84
2022/01/25 06:08:08;;;;;;;22.13;13.27;;;;;;;-3.18;100.00;96872.91;4961873;28;20244;-83
2022/01/25 06:10:34;;;;;;;20.37;12.27;;;;;;;-3.12;100.00;96884.66;4972310;28;20196;-83
2022/01/25 06:12:59;;;;;;;20.90;12.33;;;;;;;-3.30;100.00;96883.31;4985109;28;20509;-82
2022/01/25 06:15:25;;;;;;;19.17;11.87;;;;;;;-3.39;100.00;96888.59;4953405;28;20183;-81
2022/01/25 06:17:50;;;;;;;17.23;11.60;;;;;;;-3.47;100.00;96880.28;4951992;28;20189;-82
2022/01/25 06:20:16;;;;;;;18.93;11.53;;;;;;;-3.51;100.00;96881.22;4985810;28;20183;-82
2022/01/25 06:22:42;;;;;;;15.50;10.93;;;;;;;-3.47;100.00;96872.66;4999945;28;20186;-79
2022/01/25 06:25:10;;;;;;;16.97;11.53;;;;;;;-3.48;100.00;96876.91;4977301;28;20274;-78
2022/01/25 06:27:38;;;;;;;19.03;11.87;;;;;;;-3.44;100.00;96880.25;4980691;28;20186;-82
2022/01/25 06:30:04;;;;;;;21.83;11.20;;;;;;;-3.42;100.00;96870.88;4985284;28;20199;-83
2022/01/25 06:32:29;;;;;;;22.33;12.57;;;;;;;-3.39;100.00;96880.97;4968565;28;20195;-81
2022/01/25 06:34:54;;;;;;;20.90;12.67;;;;;;;-3.33;100.00;96877.47;4965919;28;20177;-81
2022/01/25 06:37:20;;;;;;;18.63;12.70;;;;;;;-3.36;100.00;96880.91;4964930;28;20184;-81
2022/01/25 06:39:46;;;;;;;21.77;12.50;;;;;;;-3.28;100.00;96884.13;4972652;28;20201;-84
2022/01/25 06:42:11;;;;;;;23.03;13.43;;;;;;;-3.29;100.00;96892.59;4983102;28;20184;-80
2022/01/25 06:44:37;;;;;;;20.53;13.90;;;;;;;-3.43;100.00;96887.00;4985102;28;20173;-82
2022/01/25 06:47:04;;;;;;;20.37;13.70;;;;;;;-3.47;100.00;96896.34;4985852;28;20508;-81
2022/01/25 06:49:29;;;;;;;27.97;15.70;;;;;;;-3.49;100.00;96904.88;5004259;28;20259;-80
2022/01/25 06:51:54;;;;;;;23.27;14.23;;;;;;;-3.50;100.00;96904.03;4976438;28;20188;-80
2022/01/25 06:54:20;;;;;;;21.17;13.10;;;;;;;-3.53;100.00;96905.81;4970136;28;20217;-79
2022/01/25 06:56:45;;;;;;;22.17;13.00;;;;;;;-3.57;100.00;96906.72;4964457;28;20232;-80
2022/01/25 06:59:10;;;;;;;20.50;13.37;;;;;;;-3.42;100.00;96911.53;4947658;28;20196;-81
2022/01/25 07:01:36;;;;;;;21.17;13.40;;;;;;;-3.54;100.00;96902.41;4967576;28;20191;-83
2022/01/25 07:04:01;;;;;;;27.07;15.63;;;;;;;-3.56;100.00;96910.94;4981728;28;20192;-82
2022/01/25 07:06:27;;;;;;;26.47;15.53;;;;;;;-3.59;100.00;96903.38;4978670;28;20272;-83
2022/01/25 07:08:52;;;;;;;32.97;17.60;;;;;;;-3.56;100.00;96911.78;4963518;28;20207;-83
2022/01/25 07:11:18;;;;;;;32.63;18.80;;;;;;;-3.55;100.00;96912.59;4948392;28;20663;-82
2022/01/25 07:13:43;;;;;;;34.13;18.27;;;;;;;-3.53;100.00;96915.97;4977552;28;20648;-82
2022/01/25 07:16:09;;;;;;;32.57;17.60;;;;;;;-3.54;100.00;96916.81;4965028;28;20286;-82
2022/01/25 07:18:34;;;;;;;35.20;17.90;;;;;;;-3.51;100.00;96912.53;4977817;28;20205;-81
2022/01/25 07:20:59;;;;;;;37.37;16.70;;;;;;;-3.51;100.00;96915.06;4983435;28;20180;-82
2022/01/25 07:23:24;;;;;;;39.37;17.17;;;;;;;-3.48;100.00;96914.16;4980974;28;20195;-82
2022/01/25 07:25:50;;;;;;;36.30;17.87;;;;;;;-3.45;100.00;96916.63;4970718;28;20185;-81
2022/01/25 07:28:15;;;;;;;41.50;18.13;;;;;;;-3.37;100.00;96914.78;4967447;28;20673;-82
2022/01/25 07:30:41;;;;;;;32.87;17.00;;;;;;;-3.37;100.00;96914.78;4975182;28;20224;-83
2022/01/25 07:33:07;;;;;;;32.20;17.43;;;;;;;-3.36;100.00;96908.84;4972272;28;20213;-81
2022/01/25 07:35:36;;;;;;;30.10;16.90;;;;;;;-3.39;100.00;96919.06;4954083;28;20204;-82
2022/01/25 07:38:02;;;;;;;29.03;17.33;;;;;;;-3.37;100.00;96913.94;4949760;28;20180;-81
2022/01/25 07:40:28;;;;;;;36.20;18.57;;;;;;;-3.22;100.00;96911.94;4945486;28;20239;-82
2022/01/25 07:42:53;;;;;;;36.60;19.33;;;;;;;-3.17;100.00;96922.03;4944525;28;20188;-80
2022/01/25 07:45:19;;;;;;;36.13;18.20;;;;;;;-3.27;100.00;96921.38;4975036;28;20181;-82
2022/01/25 07:47:44;;;;;;;46.53;19.73;;;;;;;-3.20;100.00;96922.06;4969570;28;20191;-82
2022/01/25 07:50:10;;;;;;;45.87;18.93;;;;;;;-3.17;100.00;96922.03;4978246;28;20204;-82
2022/01/25 07:52:36;;;;;;;43.27;20.93;;;;;;;-3.17;100.00;96922.03;4984131;28;20621;-81
2022/01/25 07:55:03;;;;;;;49.47;19.53;;;;;;;-3.03;100.00;96931.91;4950423;28;20184;-82
2022/01/25 07:57:28;;;;;;;41.53;19.20;;;;;;;-2.85;100.00;96929.81;4970077;28;20197;-80
2022/01/25 07:59:54;;;;;;;49.53;21.63;;;;;;;-2.78;100.00;96935.59;4987209;28;20228;-81
2022/01/25 08:02:20;;;;;;;37.33;19.87;;;;;;;-2.88;100.00;96934.97;4994790;28;20179;-80
2022/01/25 08:04:45;;;;;;;38.27;19.93;;;;;;;-2.75;100.00;96930.44;5001555;28;20185;-80
2022/01/25 08:07:11;;;;;;;42.33;21.03;;;;;;;-2.61;100.00;96932.69;5001977;28;20180;-81
2022/01/25 08:09:36;;;;;;;37.77;20.93;;;;;;;-2.66;100.00;96935.31;4972327;28;20219;-83
2022/01/25 08:12:01;;;;;;;42.53;21.90;;;;;;;-2.75;100.00;96930.44;4982667;28;20184;-84
2022/01/25 08:14:27;;;;;;;36.30;21.43;;;;;;;-2.72;100.00;96934.66;4958789;28;20192;-84
2022/01/25 08:16:52;;;;;;;33.87;20.60;;;;;;;-2.65;100.00;96942.09;4950410;28;20652;-84
2022/01/25 08:19:19;;;;;;;41.20;24.67;;;;;;;-2.48;100.00;96934.06;4977287;28;20211;-84
2022/01/25 08:21:45;;;;;;;46.10;26.07;;;;;;;-2.41;100.00;96939.88;4966712;28;20181;-85
2022/01/25 08:24:13;;;;;;;50.80;25.67;;;;;;;-2.33;100.00;96938.81;4960524;28;20180;-84
2022/01/25 08:26:39;;;;;;;45.67;25.27;;;;;;;-2.25;100.00;96940.34;4947630;28;20248;-84
2022/01/25 08:29:05;;;;;;;41.03;23.97;;;;;;;-2.25;100.00;96937.81;4975319;28;20203;-84
2022/01/25 08:31:32;;;;;;;38.63;23.63;;;;;;;-2.14;100.00;96940.94;4963917;28;20181;-85
2022/01/25 08:33:58;;;;;;;39.40;23.80;;;;;;;-2.10;100.00;96930.66;4979118;28;20185;-84
2022/01/25 08:36:24;;;;;;;40.43;24.63;;;;;;;-1.82;100.00;96927.41;4964025;28;20187;-84
2022/01/25 08:38:49;;;;;;;40.63;24.33;;;;;;;-1.93;100.00;96919.22;4977735;28;20213;-80
2022/01/25 08:41:15;;;;;;;44.03;25.60;;;;;;;-1.90;100.00;96926.78;4979503;28;20192;-84
2022/01/25 08:43:54;;;;;;;39.37;24.10;;;;;;;-1.79;100.00;96927.31;4953416;28;20202;-86
2022/01/25 08:46:59;;;;;;;37.10;21.70;;;;;;;-1.75;100.00;96922.13;4954906;28;20977;-86
2022/01/25 08:49:25;;;;;;;33.53;19.77;;;;;;;-1.68;100.00;96917.69;4918832;29;20224;-83
2022/01/25 08:51:53;;;;;;;51.97;29.37;;;;;;;-1.63;100.00;96920.13;4932088;29;20193;-83
2022/01/25 09:04:58;;;;;;;52.30;31.20;;;;;;;-1.08;100.00;96919.44;4849725;29;20198;-83
2022/01/25 09:07:50;;;;;;;47.23;29.07;;;;;;;-1.13;100.00;96920.47;4846063;29;20194;-85
2022/01/25 09:10:58;;;;;;;44.70;27.77;;;;;;;-1.09;100.00;96927.97;4853160;29;20215;-86
2022/01/25 09:24:49;;;;;;;40.37;26.67;;;;;;;-0.59;100.00;96921.41;4697092;30;20308;-82
2022/01/25 09:28:09;;;;;;;;;;;;;;;;;;;;;
2022/01/25 09:30:53;;;;;;;43.30;27.60;;;;;;;-0.43;100.00;96933.72;4733595;30;20228;-85
2022/01/25 09:33:19;;;;;;;38.73;26.60;;;;;;;-0.43;100.00;96929.44;4733905;30;20230;-84
2022/01/25 09:42:44;;;;;;;42.00;23.77;;;;;;;-0.15;100.00;96931.97;4714269;30;20283;-86
2022/01/25 09:45:18;;;;;;;33.67;20.20;;;;;;;0.05;100.00;96926.22;4683809;30;20840;-85
2022/01/25 09:47:51;;;;;;;31.27;20.97;;;;;;;-0.06;99.88;96929.13;4700935;30;20282;-86
2022/01/25 09:50:56;;;;;;;31.07;21.10;;;;;;;0.21;98.87;96929.09;4699182;30;20356;-87
2022/01/25 09:53:25;;;;;;;39.83;21.80;;;;;;;0.26;97.72;96922.94;4702285;30;20207;-84
2022/01/25 09:56:34;;;;;;;30.07;19.33;;;;;;;0.27;97.85;96928.91;4774213;29;20203;-87
2022/01/25 09:59:00;;;;;;;29.57;19.17;;;;;;;0.26;98.69;96922.94;4753318;30;20296;-82
2022/01/25 10:01:44;;;;;;;26.90;18.00;;;;;;;0.34;98.42;96926.94;4782107;29;20286;-84
2022/01/25 10:07:56;;;;;;;23.77;16.80;;;;;;;0.60;97.48;96929.44;4773685;30;20232;-86
2022/01/25 10:10:32;;;;;;;26.27;16.30;;;;;;;0.45;97.27;96922.34;4754115;29;20673;-86
2022/01/25 10:13:20;;;;;;;29.87;18.50;;;;;;;0.50;97.51;96925.53;4769428;30;20194;-86
2022/01/25 10:16:04;;;;;;;22.67;16.10;;;;;;;0.57;96.47;96927.00;4772338;29;20201;-86
2022/01/25 10:19:44;;;;;;;;;;;;;;;;;;;;;
2022/01/25 10:33:39;;;;;;;19.70;13.43;;;;;;;1.11;93.71;96937.00;4720901;30;20247;-87
2022/01/25 11:15:59;;;;;;;17.70;12.30;;;;;;;1.50;91.80;96935.56;4957530;29;20557;-84
2022/01/25 11:18:30;;;;;;;20.07;13.57;;;;;;;1.57;91.95;96929.31;4935957;29;20283;-83
2022/01/25 11:21:05;;;;;;;19.17;13.80;;;;;;;1.74;91.09;96931.22;4934871;29;20185;-84
2022/01/25 11:24:01;;;;;;;21.33;13.60;;;;;;;1.72;90.32;96928.72;4901860;29;20559;-84
2022/01/25 11:26:37;;;;;;;19.10;13.30;;;;;;;1.82;89.56;96934.31;4902840;29;20186;-83
2022/01/25 11:29:39;;;;;;;;;;;;;;;;;;;;;
2022/01/25 11:33:35;;;;;;;20.23;13.03;;;;;;;1.78;88.98;96931.06;4938946;29;20189;-84
2022/01/25 11:36:47;;;;;;;22.50;14.33;;;;;;;1.89;88.26;96926.34;4874135;29;20240;-84
2022/01/25 12:04:07;;;;;;;24.27;17.57;;;;;;;2.10;87.63;96904.13;4715966;30;20254;-86
2022/01/25 12:13:38;;;;;;;25.27;18.83;;;;;;;2.15;87.66;96893.69;4755012;30;20216;-84
2022/01/25 12:16:47;;;;;;;;;;;;;;;;;;;;;
2022/01/25 12:46:28;;;;;;;;;;;;;;;;;;;;;
2022/01/25 12:48:59;;;;;;;31.23;20.67;;;;;;;2.12;86.96;96891.25;4863223;29;20700;-87
2022/01/25 12:51:31;;;;;;;31.37;21.07;;;;;;;2.19;87.54;96893.50;4842027;29;20244;-85
2022/01/25 12:53:58;;;;;;;37.80;24.60;;;;;;;1.83;88.67;96898.38;4829382;29;20193;-83
2022/01/25 12:56:30;;;;;;;37.67;23.50;;;;;;;1.60;89.33;96898.47;4829421;29;20193;-83
2022/01/25 12:59:05;;;;;;;35.90;23.63;;;;;;;1.82;88.98;96893.34;4844346;29;20244;-86
2022/01/25 13:01:31;;;;;;;36.87;24.13;;;;;;;1.85;88.76;96888.91;4829572;29;20188;-85
2022/01/25 13:03:59;;;;;;;38.50;25.10;;;;;;;1.76;89.10;96893.56;4844431;29;20218;-86
2022/01/25 13:06:46;;;;;;;39.00;25.03;;;;;;;1.52;90.47;96890.25;4843742;29;20212;-85
2022/01/25 13:13:22;;;;;;;41.10;26.07;;;;;;;1.56;90.66;96887.50;4861895;29;20240;-88
2022/01/25 13:30:57;;;;;;;43.47;27.87;;;;;;;1.32;92.89;96876.50;5412614;23;20262;-86
2022/01/25 13:33:22;;;;;;;39.77;25.97;;;;;;;1.40;92.41;96865.97;4956604;29;20755;-84
2022/01/25 13:35:53;;;;;;;39.50;27.13;;;;;;;1.47;92.26;96867.38;4956740;29;20192;-80
2022/01/25 13:38:26;;;;;;;43.30;27.27;;;;;;;1.64;91.04;96869.28;4955469;29;20232;-79
2022/01/25 13:41:08;;;;;;;36.93;24.87;;;;;;;1.70;90.85;96862.19;4938476;29;20562;-80
2022/01/25 13:46:15;;;;;;;36.70;25.27;;;;;;;1.70;90.49;96863.94;4956473;29;20193;-84
2022/01/25 13:48:42;;;;;;;37.77;25.93;;;;;;;1.73;90.60;96862.97;4956029;28;20716;-83
2022/01/25 14:23:57;;;;;;;38.57;25.13;;;;;;;1.17;91.92;96864.31;4916082;29;20209;-80
2022/01/25 14:26:28;;;;;;;54.03;31.60;;;;;;;1.13;92.66;96872.97;4919854;29;20193;-86
2022/01/25 14:29:11;;;;;;;;;;;;;;;;;;;;;
2022/01/25 14:31:45;;;;;;;44.03;29.43;;;;;;;1.06;92.97;96874.94;4915909;29;20212;-85
2022/01/25 14:34:13;;;;;;;50.93;28.70;;;;;;;0.94;93.74;96877.09;4902872;29;20193;-85
2022/01/25 14:36:40;;;;;;;48.23;29.57;;;;;;;0.94;93.25;96866.88;4935938;29;20673;-87
2022/01/25 14:39:06;;;;;;;49.17;31.03;;;;;;;0.84;93.31;96864.66;4925972;29;20280;-84
2022/01/25 14:41:34;;;;;;;46.03;28.17;;;;;;;0.70;94.55;96859.19;4901876;29;20267;-84
2022/01/25 14:44:07;;;;;;;66.07;38.37;;;;;;;0.79;94.57;96863.16;4902908;29;20242;-82
2022/01/25 14:46:50;;;;;;;49.10;28.80;;;;;;;0.81;93.44;96857.09;4930455;29;20189;-83
2022/01/25 14:49:20;;;;;;;46.73;28.97;;;;;;;0.85;93.82;96853.53;4916310;29;20299;-84
2022/01/25 14:52:08;;;;;;;51.10;30.07;;;;;;;0.84;93.85;96857.00;4933413;29;20606;-85
2022/01/25 14:55:12;;;;;;;46.30;27.93;;;;;;;0.96;93.36;96857.41;4917903;29;20269;-86
2022/01/25 15:00:58;;;;;;;45.57;27.63;;;;;;;0.82;93.75;96856.22;4901546;29;20203;-84
2022/01/25 15:03:49;;;;;;;44.20;27.43;;;;;;;0.74;94.23;96854.84;4901456;29;20193;-85
2022/01/25 15:06:23;;;;;;;48.40;29.20;;;;;;;0.76;94.43;96859.00;4868858;29;20195;-86
2022/01/25 15:09:20;;;;;;;;;;;;;;;;;;;;;
2022/01/25 15:12:12;;;;;;;46.27;27.87;;;;;;;0.62;94.83;96862.94;4897190;29;20245;-87
2022/01/25 15:14:49;;;;;;;48.93;30.00;;;;;;;0.68;94.69;96855.88;4894902;29;20258;-86
2022/01/25 15:17:36;;;;;;;49.80;29.97;;;;;;;0.67;94.52;96853.38;4887321;29;20230;-84
2022/01/25 15:20:11;;;;;;;52.23;30.67;;;;;;;0.74;94.75;96855.66;4883321;29;20206;-83
2022/01/25 15:26:11;;;;;;;44.37;27.23;;;;;;;0.62;94.40;96858.69;4867803;29;20698;-85
2022/01/25 15:28:50;;;;;;;44.00;27.47;;;;;;;0.57;95.15;96868.22;4858972;29;20207;-85
2022/01/25 15:32:09;;;;;;;45.07;25.70;;;;;;;0.51;95.02;96868.44;4853236;29;20224;-87
2022/01/25 15:38:07;;;;;;;88.13;47.33;;;;;;;0.39;95.20;96866.31;4867199;29;20191;-86
2022/01/25 15:40:38;;;;;;;78.50;47.67;;;;;;;0.41;95.48;96870.47;4849839;29;20556;-85
2022/01/25 15:43:06;;;;;;;45.23;28.47;;;;;;;0.30;95.84;96871.75;4852591;29;20198;-85
2022/01/25 15:45:43;;;;;;;47.30;27.70;;;;;;;0.21;95.63;96876.28;4865351;29;20287;-81
2022/01/25 15:52:04;;;;;;;45.23;26.33;;;;;;;0.00;96.73;96864.25;4785275;29;20225;-86
2022/01/25 15:54:41;;;;;;;45.07;26.77;;;;;;;-0.28;96.97;96867.69;4774962;29;20191;-83
2022/01/25 15:57:10;;;;;;;46.00;26.50;;;;;;;-0.35;98.09;96866.22;4777138;30;20233;-85
2022/01/25 15:59:39;;;;;;;47.10;30.33;;;;;;;-0.18;98.21;96865.66;4779962;30;20219;-86
2022/01/25 16:02:29;;;;;;;52.63;30.10;;;;;;;-0.52;99.03;96862.53;4792154;29;20200;-85
2022/01/25 16:04:54;;;;;;;45.77;26.90;;;;;;;-0.84;100.00;96859.25;4825612;29;20661;-81
2022/01/25 16:07:34;;;;;;;42.80;26.17;;;;;;;-0.96;100.00;96860.47;4829804;29;20198;-83
2022/01/25 16:10:22;;;;;;;39.97;24.90;;;;;;;-1.07;100.00;96854.84;4823604;29;20232;-84
2022/01/25 16:13:11;;;;;;;41.37;25.43;;;;;;;-1.16;100.00;96865.31;4838188;29;20200;-82
2022/01/25 16:15:50;;;;;;;50.43;28.00;;;;;;;-1.18;100.00;96867.06;4841212;29;20205;-81
2022/01/25 16:18:56;;;;;;;;;;;;;;;;;;;;;
2022/01/25 16:22:20;;;;;;;44.53;27.43;;;;;;;-1.40;100.00;96874.50;4843110;29;20212;-83
2022/01/25 16:25:00;;;;;;;47.80;26.17;;;;;;;-1.46;100.00;96867.00;4880635;29;20206;-85
2022/01/25 16:28:26;;;;;;;46.17;27.67;;;;;;;-1.52;100.00;96868.00;4875351;29;20206;-82
2022/01/25 16:31:10;;;;;;;45.60;28.10;;;;;;;-1.62;100.00;96870.84;4840675;29;20315;-84
2022/01/25 16:37:29;;;;;;;58.17;31.43;;;;;;;-1.77;100.00;96879.72;4840250;29;20701;-81
2022/01/25 16:39:55;;;;;;;52.53;31.60;;;;;;;-1.83;100.00;96880.75;4803489;29;20232;-81
2022/01/25 16:42:25;;;;;;;55.27;31.77;;;;;;;-1.88;100.00;96877.47;4821977;29;20206;-80
2022/01/25 16:45:36;;;;;;;63.07;36.03;;;;;;;-1.93;100.00;96874.22;4838363;29;20724;-81
2022/01/25 16:48:33;;;;;;;59.03;35.03;;;;;;;-1.97;100.00;96875.16;4833655;29;20646;-80
2022/01/25 16:51:51;;;;;;;62.23;37.57;;;;;;;-2.02;100.00;96877.84;4836346;29;20243;-82
2022/01/25 17:01:25;;;;;;;60.50;36.97;;;;;;;-2.04;100.00;96871.09;4807776;29;20721;-81
2022/01/25 17:04:48;;;;;;;55.80;34.90;;;;;;;-2.08;100.00;96867.81;4786921;29;20203;-82
2022/01/25 17:37:17;;;;;;;;;;;;;;;;;;;;;
2022/01/25 17:50:27;;;;;;;60.17;38.30;;;;;;;-2.50;100.00;96871.41;5131597;27;20886;-83
2022/01/25 17:52:55;;;;;;;53.60;33.67;;;;;;;-2.54;100.00;96868.09;5111156;28;20196;-83